createdAt,value
2022-11-15T00:01:34.213Z,44.50
2022-11-15T00:04:19.762Z,44.20
2022-11-15T00:07:05.701Z,44.12
2022-11-15T00:09:51.067Z,44.02
2022-11-15T00:12:37.087Z,44.60
2022-11-15T00:15:22.261Z,44.54
2022-11-15T00:18:15.659Z,43.89
2022-11-15T00:21:07.240Z,43.96
2022-11-15T00:23:52.403Z,44.50
2022-11-15T00:26:38.222Z,44.27
2022-11-15T00:29:24.717Z,44.31
2022-11-15T00:32:15.052Z,44.27
2022-11-15T00:35:02.036Z,44.64
2022-11-15T00:37:48.841Z,44.52
2022-11-15T00:40:34.603Z,44.17
2022-11-15T00:43:20.390Z,44.00
2022-11-15T00:46:06.354Z,44.36
2022-11-15T00:48:52.111Z,44.64
2022-11-15T00:51:37.655Z,44.81
2022-11-15T00:54:23.497Z,44.58
2022-11-15T00:57:09.740Z,44.65
2022-11-15T00:59:55.425Z,44.09
2022-11-15T01:02:40.975Z,43.95
2022-11-15T01:05:26.920Z,44.01
2022-11-15T01:08:16.571Z,44.42
2022-11-15T01:11:05.007Z,44.48
2022-11-15T01:13:50.349Z,44.65
2022-11-15T01:16:35.803Z,44.56
2022-11-15T01:19:21.447Z,44.23
2022-11-15T01:22:06.998Z,44.33
2022-11-15T01:24:52.799Z,44.18
2022-11-15T01:27:49.563Z,44.49
2022-11-15T01:30:36.796Z,44.64
2022-11-15T01:33:22.341Z,44.29
2022-11-15T01:36:26.287Z,44.42
2022-11-15T01:39:12.270Z,44.78
2022-11-15T01:41:57.727Z,44.30
2022-11-15T01:44:48.558Z,44.15
2022-11-15T01:47:42.253Z,44.34
2022-11-15T01:50:32.139Z,44.51
2022-11-15T01:53:21.168Z,44.15
2022-11-15T01:56:10.692Z,44.07
2022-11-15T01:58:59.642Z,44.31
2022-11-15T02:01:45.411Z,44.37
2022-11-15T02:04:33.943Z,44.54
2022-11-15T02:07:22.347Z,44.07
2022-11-15T02:10:14.432Z,44.48
2022-11-15T02:13:02.056Z,44.59
2022-11-15T02:16:03.028Z,44.79
2022-11-15T02:19:04.806Z,44.26
2022-11-15T02:22:09.947Z,44.94
2022-11-15T02:25:22.917Z,44.93
2022-11-15T02:28:14.696Z,44.56
2022-11-15T02:31:27.881Z,44.99
2022-11-15T02:34:32.455Z,44.87
2022-11-15T02:37:30.569Z,44.32
2022-11-15T02:40:30.726Z,45.13
2022-11-15T02:43:47.679Z,44.95
2022-11-15T02:47:14.227Z,45.20
2022-11-15T02:50:07.109Z,45.10
2022-11-15T02:52:53.149Z,45.24
2022-11-15T02:55:43.094Z,45.57
2022-11-15T02:58:48.606Z,45.29
2022-11-15T03:02:10.139Z,45.63
2022-11-15T03:05:13.879Z,45.47
2022-11-15T03:08:11.156Z,45.63
2022-11-15T03:10:59.530Z,45.34
2022-11-15T03:13:57.276Z,45.58
2022-11-15T03:16:57.968Z,45.37
2022-11-15T03:19:49.122Z,45.63
2022-11-15T03:22:42.115Z,45.64
2022-11-15T03:25:30.973Z,45.49
2022-11-15T03:28:27.394Z,45.80
2022-11-15T03:31:35.689Z,45.51
2022-11-15T03:34:53.186Z,45.69
2022-11-15T03:37:43.300Z,45.29
2022-11-15T03:40:37.104Z,45.67
2022-11-15T03:43:42.726Z,45.66
2022-11-15T03:46:34.535Z,45.34
2022-11-15T03:49:26.888Z,45.60
2022-11-15T03:52:12.988Z,45.26
2022-11-15T03:55:02.459Z,45.41
2022-11-15T03:57:51.203Z,46.02
2022-11-15T04:00:37.148Z,45.91
2022-11-15T04:03:22.921Z,45.48
2022-11-15T04:06:08.616Z,46.25
2022-11-15T04:08:54.639Z,46.15
2022-11-15T04:11:40.626Z,46.01
2022-11-15T04:14:26.227Z,45.89
2022-11-15T04:17:11.569Z,46.17
2022-11-15T04:20:15.606Z,46.26
2022-11-15T04:23:20.957Z,46.34
2022-11-15T04:26:11.270Z,46.23
2022-11-15T04:29:15.277Z,46.35
2022-11-15T04:32:07.401Z,46.29
2022-11-15T04:34:52.966Z,45.76
2022-11-15T04:37:38.944Z,46.02
2022-11-15T04:40:24.883Z,46.27
2022-11-15T04:43:10.742Z,46.36
2022-11-15T04:45:56.703Z,46.85
2022-11-15T04:48:42.323Z,46.20
2022-11-15T04:51:28.147Z,46.63
2022-11-15T04:54:13.687Z,46.93
2022-11-15T04:56:59.085Z,46.74
2022-11-15T04:59:45.096Z,46.26
2022-11-15T05:02:52.879Z,46.08
2022-11-15T05:05:38.730Z,45.77
2022-11-15T05:08:24.075Z,46.31
2022-11-15T05:11:09.713Z,46.52
2022-11-15T05:13:56.444Z,46.65
2022-11-15T05:16:43.061Z,46.60
2022-11-15T05:19:29.100Z,46.69
2022-11-15T05:22:14.593Z,46.29
2022-11-15T05:25:00.813Z,46.57
2022-11-15T05:27:46.307Z,46.38
2022-11-15T05:30:32.112Z,46.30
2022-11-15T05:33:18.569Z,46.56
2022-11-15T05:36:28.245Z,46.58
2022-11-15T05:39:14.149Z,46.58
2022-11-15T05:42:08.915Z,46.19
2022-11-15T05:44:55.131Z,46.37
2022-11-15T05:47:41.695Z,46.52
2022-11-15T05:50:28.171Z,46.18
2022-11-15T05:53:15.800Z,46.45
2022-11-15T05:56:01.853Z,46.50
2022-11-15T05:58:47.442Z,46.42
2022-11-15T06:01:33.063Z,46.54
2022-11-15T06:04:18.578Z,45.77
2022-11-15T06:07:04.175Z,46.21
2022-11-15T06:09:49.949Z,45.82
2022-11-15T06:12:35.682Z,45.88
2022-11-15T06:15:21.126Z,45.91
2022-11-15T06:18:06.806Z,46.14
2022-11-15T06:20:52.424Z,45.89
2022-11-15T06:23:38.005Z,46.03
2022-11-15T06:26:23.598Z,45.33
2022-11-15T06:29:09.404Z,45.54
2022-11-15T06:31:55.102Z,46.08
2022-11-15T06:34:40.791Z,45.57
2022-11-15T06:37:26.414Z,45.72
2022-11-15T06:40:12.552Z,45.59
2022-11-15T06:43:01.237Z,45.68
2022-11-15T06:45:46.920Z,45.73
2022-11-15T06:48:34.268Z,45.51
2022-11-15T06:51:19.380Z,45.85
2022-11-15T06:54:05.023Z,45.71
2022-11-15T06:56:50.510Z,45.81
2022-11-15T06:59:40.270Z,45.50
2022-11-15T07:02:26.635Z,45.91
2022-11-15T07:05:13.322Z,45.52
2022-11-15T07:07:59.761Z,46.25
2022-11-15T07:10:45.328Z,45.77
2022-11-15T07:13:36.417Z,45.53
2022-11-15T07:16:22.470Z,45.94
2022-11-15T07:19:10.137Z,45.83
2022-11-15T07:21:55.594Z,45.83
2022-11-15T07:24:40.925Z,45.34
2022-11-15T07:27:26.616Z,45.63
2022-11-15T07:30:15.573Z,45.69
2022-11-15T07:33:02.106Z,46.01
2022-11-15T07:35:51.462Z,45.85
2022-11-15T07:38:42.482Z,46.16
2022-11-15T07:41:28.753Z,46.04
2022-11-15T07:44:14.295Z,45.93
2022-11-15T07:47:00.024Z,45.45
2022-11-15T07:49:47.217Z,45.25
2022-11-15T07:52:32.555Z,45.87
2022-11-15T07:55:18.214Z,45.24
2022-11-15T07:58:07.862Z,45.43
2022-11-15T08:00:53.810Z,45.47
2022-11-15T08:03:39.644Z,45.63
2022-11-15T08:06:25.406Z,45.60
2022-11-15T08:09:11.204Z,45.38
2022-11-15T08:11:56.783Z,45.43
2022-11-15T08:14:42.255Z,45.63
2022-11-15T08:17:28.930Z,44.99
2022-11-15T08:20:14.718Z,44.63
2022-11-15T08:23:02.273Z,44.75
2022-11-15T08:25:48.149Z,45.12
2022-11-15T08:28:34.033Z,45.33
2022-11-15T08:31:20.074Z,45.07
2022-11-15T08:34:07.119Z,45.34
2022-11-15T08:36:52.752Z,44.35
2022-11-15T08:39:38.977Z,44.53
2022-11-15T08:42:24.691Z,44.29
2022-11-15T08:45:10.504Z,44.77
2022-11-15T08:47:56.831Z,44.86
2022-11-15T08:50:44.825Z,44.70
2022-11-15T08:53:30.569Z,44.71
2022-11-15T08:56:16.581Z,44.75
2022-11-15T08:59:02.938Z,44.31
2022-11-15T09:01:48.544Z,45.03
2022-11-15T09:04:34.189Z,44.67
2022-11-15T09:07:20.067Z,44.40
2022-11-15T09:10:05.679Z,44.35
2022-11-15T09:12:51.516Z,44.13
2022-11-15T09:15:36.977Z,44.89
2022-11-15T09:18:23.864Z,43.38
2022-11-15T09:21:11.087Z,44.55
2022-11-15T09:23:57.227Z,44.61
2022-11-15T09:26:43.000Z,45.05
2022-11-15T09:29:28.574Z,44.79
2022-11-15T09:32:14.401Z,44.33
2022-11-15T09:35:00.099Z,45.03
2022-11-15T09:37:45.525Z,44.36
2022-11-15T09:40:36.823Z,44.63
2022-11-15T09:43:37.552Z,44.46
2022-11-15T09:46:36.668Z,44.25
2022-11-15T09:49:39.939Z,44.76
2022-11-15T09:52:19.449Z,44.72
2022-11-15T09:54:54.000Z,45.04
2022-11-15T09:57:41.186Z,45.17
2022-11-15T10:00:45.315Z,45.08
2022-11-15T10:03:15.202Z,44.53
2022-11-15T10:05:48.316Z,44.55
2022-11-15T10:08:25.865Z,44.25
2022-11-15T10:11:35.688Z,45.04
2022-11-15T10:13:57.620Z,44.65
2022-11-15T10:16:52.777Z,43.97
2022-11-15T10:19:53.725Z,44.53
2022-11-15T10:22:31.762Z,44.31
2022-11-15T10:25:17.553Z,44.46
2022-11-15T10:27:48.643Z,44.24
2022-11-15T10:30:19.081Z,44.48
2022-11-15T10:32:48.501Z,44.40
2022-11-15T10:35:26.046Z,44.02
2022-11-15T10:37:56.649Z,44.68
2022-11-15T10:40:25.449Z,44.44
2022-11-15T10:43:27.383Z,44.66
2022-11-15T10:45:54.591Z,44.18
2022-11-15T10:48:23.929Z,44.95
2022-11-15T10:50:53.170Z,44.63
2022-11-15T10:53:45.140Z,44.50
2022-11-15T10:56:17.032Z,44.50
2022-11-15T10:58:51.413Z,44.71
2022-11-15T11:01:32.533Z,44.81
2022-11-15T11:04:09.614Z,45.21
2022-11-15T11:06:50.466Z,44.81
2022-11-15T11:09:33.926Z,45.28
2022-11-15T11:12:02.661Z,45.32
2022-11-15T11:14:35.048Z,45.59
2022-11-15T11:17:14.298Z,45.68
2022-11-15T11:19:41.499Z,45.67
2022-11-15T11:22:33.477Z,45.95
2022-11-15T11:25:21.677Z,45.77
2022-11-15T11:27:57.680Z,45.66
2022-11-15T11:31:06.584Z,45.68
2022-11-15T11:33:45.713Z,46.54
2022-11-15T11:36:38.277Z,46.90
2022-11-15T11:39:11.716Z,47.41
2022-11-15T11:42:03.554Z,47.44
2022-11-15T11:44:36.795Z,48.04
2022-11-15T11:47:22.145Z,47.77
2022-11-15T11:50:01.990Z,48.40
2022-11-15T11:52:41.549Z,48.27
2022-11-15T11:55:24.122Z,48.41
2022-11-15T11:58:03.166Z,48.36
2022-11-15T12:00:35.345Z,48.44
2022-11-15T12:03:08.789Z,48.57
2022-11-15T12:06:09.333Z,48.41
2022-11-15T12:09:03.401Z,48.58
2022-11-15T12:11:55.018Z,48.48
2022-11-15T12:14:49.388Z,48.67
2022-11-15T12:17:21.766Z,48.88
2022-11-15T12:19:49.616Z,48.75
2022-11-15T12:22:22.299Z,49.31
2022-11-15T12:25:02.705Z,49.72
2022-11-15T12:27:36.744Z,51.96
2022-11-15T12:30:19.338Z,54.69
2022-11-15T12:32:55.898Z,54.80
2022-11-15T12:35:28.130Z,54.51
2022-11-15T12:37:56.650Z,54.00
2022-11-15T12:40:26.422Z,52.72
2022-11-15T12:43:33.291Z,53.71
2022-11-15T12:46:05.758Z,53.55
2022-11-15T12:48:35.733Z,55.06
2022-11-15T12:51:03.609Z,55.18
2022-11-15T12:53:36.388Z,56.26
2022-11-15T12:56:18.663Z,56.79
2022-11-15T12:59:03.539Z,57.05
2022-11-15T13:01:36.372Z,57.12
2022-11-15T13:04:22.531Z,57.06
2022-11-15T13:07:04.297Z,57.41
2022-11-15T13:09:37.380Z,56.64
2022-11-15T13:12:27.841Z,59.38
2022-11-15T13:15:02.263Z,59.85
2022-11-15T13:17:35.095Z,61.29
2022-11-15T13:20:08.222Z,60.19
2022-11-15T13:22:52.911Z,60.22
2022-11-15T13:25:43.229Z,59.77
2022-11-15T13:28:16.349Z,60.20
2022-11-15T13:30:54.250Z,59.68
2022-11-15T13:33:36.763Z,59.95
2022-11-15T13:36:15.914Z,63.08
2022-11-15T13:38:44.509Z,62.33
2022-11-15T13:41:25.299Z,63.27
2022-11-15T13:43:53.851Z,64.15
2022-11-15T13:46:29.756Z,64.69
2022-11-15T13:49:05.819Z,63.39
2022-11-15T13:51:45.206Z,65.86
2022-11-15T13:54:36.823Z,63.74
2022-11-15T13:57:14.778Z,64.75
2022-11-15T13:59:55.165Z,63.33
2022-11-15T14:02:34.039Z,63.45
2022-11-15T14:05:03.089Z,63.07
2022-11-15T14:07:31.716Z,62.04
2022-11-15T14:09:58.968Z,64.79
2022-11-15T14:12:33.357Z,64.98
2022-11-15T14:15:02.903Z,64.92
2022-11-15T14:17:30.435Z,64.04
2022-11-15T14:19:59.136Z,63.98
2022-11-15T14:22:27.463Z,63.82
2022-11-15T14:25:22.648Z,64.85
2022-11-15T14:28:10.300Z,63.77
2022-11-15T14:30:37.368Z,63.13
2022-11-15T14:33:21.898Z,66.14
2022-11-15T14:35:49.364Z,65.56
2022-11-15T14:38:16.495Z,65.30
2022-11-15T14:40:44.858Z,66.79
2022-11-15T14:43:13.502Z,67.41
2022-11-15T14:45:41.135Z,66.92
2022-11-15T14:48:08.558Z,66.51
2022-11-15T14:50:36.686Z,65.18
2022-11-15T14:53:05.001Z,65.62
2022-11-15T14:55:36.983Z,64.63
2022-11-15T14:58:05.394Z,64.40
2022-11-15T15:00:35.364Z,64.42
2022-11-15T15:03:03.639Z,65.15
2022-11-15T15:05:35.190Z,65.25
2022-11-15T15:08:02.879Z,65.57
2022-11-15T15:10:42.463Z,65.91
2022-11-15T15:13:22.075Z,65.89
2022-11-15T15:15:50.764Z,65.59
2022-11-15T15:18:19.159Z,66.67
2022-11-15T15:20:55.465Z,66.48
2022-11-15T15:23:24.154Z,65.59
2022-11-15T15:25:51.225Z,65.10
2022-11-15T15:28:19.537Z,64.92
2022-11-15T15:30:46.679Z,65.38
2022-11-15T15:33:13.752Z,65.33
2022-11-15T15:35:40.904Z,67.56
2022-11-15T15:38:10.329Z,67.41
2022-11-15T15:40:37.509Z,66.91
2022-11-15T15:43:04.626Z,67.31
2022-11-15T15:45:33.359Z,66.74
2022-11-15T15:48:00.495Z,67.09
2022-11-15T15:50:30.109Z,65.97
2022-11-15T15:53:00.017Z,66.75
2022-11-15T15:55:28.110Z,66.76
2022-11-15T15:57:55.376Z,65.76
2022-11-15T16:00:25.900Z,65.70
2022-11-15T16:02:54.149Z,66.22
2022-11-15T16:05:22.196Z,66.22
2022-11-15T16:07:49.613Z,66.79
2022-11-15T16:10:22.636Z,66.42
2022-11-15T16:12:50.453Z,66.84
2022-11-15T16:15:18.320Z,66.86
2022-11-15T16:17:50.842Z,66.94
2022-11-15T16:20:32.954Z,68.11
2022-11-15T16:23:05.752Z,67.32
2022-11-15T16:25:49.665Z,67.47
2022-11-15T16:28:24.565Z,67.71
2022-11-15T16:31:11.711Z,69.59
2022-11-15T16:33:39.787Z,67.25
2022-11-15T16:36:23.411Z,68.78
2022-11-15T16:38:54.226Z,67.78
2022-11-15T16:41:21.419Z,68.51
2022-11-15T16:43:51.604Z,68.62
2022-11-15T16:46:21.533Z,68.15
2022-11-15T16:48:49.556Z,67.47
2022-11-15T16:51:17.512Z,67.58
2022-11-15T16:53:44.630Z,66.98
2022-11-15T16:56:30.677Z,68.21
2022-11-15T16:58:59.315Z,67.14
2022-11-15T17:01:32.731Z,67.85
2022-11-15T17:04:00.162Z,67.24
2022-11-15T17:06:27.197Z,67.93
2022-11-15T17:08:54.995Z,67.33
2022-11-15T17:11:22.873Z,66.69
2022-11-15T17:13:50.122Z,68.43
2022-11-15T17:16:18.513Z,68.47
2022-11-15T17:18:45.827Z,69.27
2022-11-15T17:21:18.584Z,68.45
2022-11-15T17:23:46.470Z,69.45
2022-11-15T17:26:34.980Z,69.53
2022-11-15T17:29:07.892Z,69.19
2022-11-15T17:31:36.649Z,69.33
2022-11-15T17:34:05.744Z,68.79
2022-11-15T17:36:33.994Z,69.10
2022-11-15T17:39:01.170Z,69.61
2022-11-15T17:41:29.458Z,69.26
2022-11-15T17:44:02.034Z,70.21
2022-11-15T17:46:29.867Z,69.29
2022-11-15T17:48:57.965Z,70.45
2022-11-15T17:51:25.389Z,70.17
2022-11-15T17:53:53.174Z,70.34
2022-11-15T17:56:23.159Z,70.04
2022-11-15T17:58:55.068Z,70.19
2022-11-15T18:01:33.562Z,70.70
2022-11-15T18:04:02.447Z,70.56
2022-11-15T18:06:34.537Z,70.00
2022-11-15T18:09:05.165Z,70.49
2022-11-15T18:11:33.837Z,70.77
2022-11-15T18:14:04.869Z,71.05
2022-11-15T18:16:34.891Z,70.91
2022-11-15T18:19:08.987Z,71.65
2022-11-15T18:21:55.909Z,71.07
2022-11-15T18:24:35.071Z,70.20
2022-11-15T18:27:04.512Z,70.01
2022-11-15T18:29:33.430Z,70.25
2022-11-15T18:32:00.664Z,70.74
2022-11-15T18:34:34.160Z,70.18
2022-11-15T18:37:03.016Z,70.67
2022-11-15T18:39:40.183Z,70.73
2022-11-15T18:42:07.226Z,71.34
2022-11-15T18:44:48.291Z,70.69
2022-11-15T18:47:15.603Z,71.19
2022-11-15T18:49:42.697Z,71.19
2022-11-15T18:52:10.742Z,71.19
2022-11-15T18:54:37.860Z,70.99
2022-11-15T18:57:05.078Z,71.61
2022-11-15T18:59:32.476Z,72.20
2022-11-15T19:02:02.945Z,71.06
2022-11-15T19:04:29.978Z,70.59
2022-11-15T19:06:57.391Z,70.85
2022-11-15T19:09:33.023Z,70.94
2022-11-15T19:12:00.628Z,70.80
2022-11-15T19:14:28.719Z,71.41
2022-11-15T19:16:56.223Z,71.14
2022-11-15T19:19:28.102Z,70.81
2022-11-15T19:21:57.186Z,70.63
2022-11-15T19:24:24.974Z,71.29
2022-11-15T19:26:52.234Z,71.04
2022-11-15T19:29:19.541Z,70.71
2022-11-15T19:31:48.972Z,71.26
2022-11-15T19:34:18.167Z,71.86
2022-11-15T19:36:50.094Z,70.74
2022-11-15T19:39:20.057Z,70.88
2022-11-15T19:41:50.154Z,71.03
2022-11-15T19:44:19.032Z,71.10
2022-11-15T19:46:46.172Z,71.27
2022-11-15T19:49:13.607Z,71.86
2022-11-15T19:51:42.889Z,71.33
2022-11-15T19:54:10.777Z,71.41
2022-11-15T19:56:40.166Z,71.66
2022-11-15T19:59:11.792Z,70.66
2022-11-15T20:01:39.581Z,71.16
2022-11-15T20:04:07.980Z,70.63
2022-11-15T20:06:38.446Z,70.29
2022-11-15T20:09:05.358Z,70.45
2022-11-15T20:11:33.700Z,70.51
2022-11-15T20:14:05.121Z,70.43
2022-11-15T20:16:32.144Z,70.45
2022-11-15T20:18:59.674Z,71.02
2022-11-15T20:21:26.815Z,70.67
2022-11-15T20:23:53.911Z,70.59
2022-11-15T20:26:21.506Z,70.48
2022-11-15T20:28:52.020Z,69.63
2022-11-15T20:31:20.041Z,69.60
2022-11-15T20:33:47.443Z,70.33
2022-11-15T20:36:16.111Z,70.46
2022-11-15T20:38:44.954Z,69.60
2022-11-15T20:41:13.145Z,70.13
2022-11-15T20:43:43.635Z,69.53
2022-11-15T20:46:12.600Z,69.90
2022-11-15T20:48:40.427Z,69.97
2022-11-15T20:51:12.105Z,69.35
2022-11-15T20:53:39.216Z,70.73
2022-11-15T20:56:18.052Z,69.96
2022-11-15T20:58:46.007Z,70.04
2022-11-15T21:01:15.644Z,69.48
2022-11-15T21:03:43.572Z,69.60
2022-11-15T21:06:11.819Z,69.83
2022-11-15T21:08:57.614Z,70.51
2022-11-15T21:11:43.732Z,69.39
2022-11-15T21:14:11.283Z,70.37
2022-11-15T21:16:39.141Z,70.30
2022-11-15T21:19:07.055Z,70.21
2022-11-15T21:21:35.922Z,70.46
2022-11-15T21:24:08.625Z,69.56
2022-11-15T21:26:36.620Z,69.40
2022-11-15T21:29:04.862Z,69.63
2022-11-15T21:31:32.261Z,70.04
2022-11-15T21:34:02.610Z,69.73
2022-11-15T21:36:30.435Z,68.95
2022-11-15T21:38:57.689Z,69.38
2022-11-15T21:41:24.678Z,69.47
2022-11-15T21:43:51.762Z,69.33
2022-11-15T21:46:18.887Z,69.22
2022-11-15T21:48:45.945Z,69.44
2022-11-15T21:51:13.172Z,69.30
2022-11-15T21:53:41.318Z,69.00
2022-11-15T21:56:09.314Z,69.33
2022-11-15T21:58:36.627Z,70.10
2022-11-15T22:01:25.853Z,69.22
2022-11-15T22:03:53.124Z,69.31
2022-11-15T22:06:20.274Z,69.63
2022-11-15T22:08:47.282Z,68.43
2022-11-15T22:11:15.490Z,68.61
2022-11-15T22:13:43.228Z,68.86
2022-11-15T22:16:10.926Z,68.83
2022-11-15T22:18:38.774Z,68.71
2022-11-15T22:21:11.917Z,69.04
2022-11-15T22:23:39.798Z,69.20
2022-11-15T22:26:08.140Z,68.72
2022-11-15T22:28:35.539Z,68.74
2022-11-15T22:31:03.540Z,69.54
2022-11-15T22:33:32.401Z,69.92
2022-11-15T22:36:00.614Z,69.38
2022-11-15T22:38:29.883Z,69.14
2022-11-15T22:40:57.822Z,68.72
2022-11-15T22:43:26.668Z,69.43
2022-11-15T22:45:59.217Z,68.75
2022-11-15T22:48:29.856Z,68.63
2022-11-15T22:50:58.096Z,68.66
2022-11-15T22:53:25.921Z,68.22
2022-11-15T22:55:56.424Z,68.52
2022-11-15T22:58:25.619Z,68.12
2022-11-15T23:00:55.037Z,68.80
2022-11-15T23:03:23.654Z,69.06
2022-11-15T23:05:51.100Z,68.96
2022-11-15T23:08:18.930Z,68.97
2022-11-15T23:11:05.217Z,68.29
2022-11-15T23:13:33.921Z,68.86
2022-11-15T23:16:22.752Z,68.76
2022-11-15T23:18:54.926Z,68.98
2022-11-15T23:21:52.744Z,68.60
2022-11-15T23:24:20.581Z,68.18
2022-11-15T23:26:49.932Z,67.86
2022-11-15T23:29:19.146Z,68.52
2022-11-15T23:32:05.865Z,68.14
2022-11-15T23:34:36.057Z,68.26
2022-11-15T23:37:03.974Z,68.73
2022-11-15T23:39:31.340Z,68.45
2022-11-15T23:42:02.032Z,67.87
2022-11-15T23:44:31.846Z,68.35
2022-11-15T23:46:58.972Z,68.26
2022-11-15T23:49:35.289Z,68.63
2022-11-15T23:52:07.412Z,68.74
2022-11-15T23:54:36.074Z,68.91
2022-11-15T23:57:03.490Z,68.43
2022-11-15T23:59:30.566Z,68.69
